createdAt,value
2022-08-14T16:52:25.123Z,4.38
2022-08-14T16:54:56.523Z,5.30
2022-08-14T16:57:28.471Z,6.80
2022-08-14T17:00:00.641Z,6.88
2022-08-14T17:02:36.243Z,4.55
2022-08-14T17:05:17.252Z,6.35
2022-08-14T17:08:07.345Z,5.93
2022-08-14T17:10:52.317Z,6.82
2022-08-14T17:13:27.329Z,4.75
2022-08-14T17:16:25.260Z,4.43
2022-08-14T17:19:00.506Z,6.22
2022-08-14T17:21:32.521Z,4.93
2022-08-14T17:24:56.536Z,5.88
2022-08-14T17:26:55.497Z,4.13
2022-08-14T17:29:31.172Z,4.90
2022-08-14T17:32:02.184Z,4.57
2022-08-14T17:35:04.681Z,5.00
2022-08-14T17:37:44.816Z,7.40
2022-08-14T17:40:15.644Z,4.25
2022-08-14T17:42:51.378Z,10.30
2022-08-14T17:45:42.641Z,7.43
2022-08-14T17:49:13.896Z,7.05
2022-08-14T17:51:24.134Z,5.78
2022-08-14T17:54:02.967Z,5.40
2022-08-14T17:56:34.185Z,8.77
2022-08-14T17:59:07.108Z,5.85
2022-08-14T18:01:45.825Z,7.40
2022-08-14T18:04:28.328Z,6.43
2022-08-14T18:07:09.276Z,7.55
2022-08-14T18:09:56.971Z,6.18
2022-08-14T18:12:36.492Z,6.72
2022-08-14T18:15:16.441Z,6.53
2022-08-14T18:17:50.586Z,6.20
2022-08-14T18:21:40.212Z,4.68
2022-08-14T18:23:15.023Z,5.68
2022-08-14T18:25:52.010Z,6.10
2022-08-14T18:28:48.624Z,5.57
2022-08-14T18:31:43.687Z,6.32
2022-08-14T18:34:31.174Z,8.13
2022-08-14T18:37:14.293Z,5.22
2022-08-14T18:39:51.722Z,7.00
2022-08-14T18:42:35.328Z,8.18
2022-08-14T18:45:12.816Z,5.15
2022-08-14T18:48:14.716Z,6.43
2022-08-14T18:50:33.498Z,6.03
2022-08-14T18:53:10.895Z,5.47
2022-08-14T18:55:53.388Z,5.70
2022-08-14T18:58:31.059Z,6.10
2022-08-14T19:01:04.275Z,7.32
2022-08-14T19:03:36.869Z,6.25
2022-08-14T19:06:07.824Z,7.13
2022-08-14T19:08:45.725Z,9.15
2022-08-14T19:11:32.682Z,7.13
2022-08-14T19:14:05.072Z,7.30
2022-08-14T19:16:37.742Z,7.57
2022-08-14T19:19:12.589Z,11.10
2022-08-14T19:21:44.474Z,7.60
2022-08-14T19:24:43.649Z,7.07
2022-08-14T19:27:26.198Z,7.28
2022-08-14T19:30:20.468Z,10.35
2022-08-14T19:32:55.753Z,7.07
2022-08-14T19:35:49.097Z,10.63
2022-08-14T19:38:44.908Z,12.00
2022-08-14T19:41:19.158Z,9.63
2022-08-14T19:43:55.838Z,7.15
2022-08-14T19:46:38.979Z,13.40
2022-08-14T19:49:23.311Z,10.05
2022-08-14T19:52:05.674Z,10.07
2022-08-14T19:54:50.534Z,11.18
2022-08-14T19:57:31.143Z,11.77
2022-08-14T20:00:28.013Z,12.00
2022-08-14T20:03:11.759Z,9.32
2022-08-14T20:05:45.590Z,9.70
2022-08-14T20:11:01.431Z,10.00
2022-08-14T20:11:20.821Z,10.02
2022-08-14T20:14:01.966Z,10.90
2022-08-14T20:16:41.934Z,11.63
2022-08-14T20:19:25.403Z,10.40
2022-08-14T20:22:35.381Z,8.55
2022-08-14T20:24:54.733Z,10.23
2022-08-14T20:27:41.136Z,9.88
2022-08-14T20:30:33.597Z,9.63
2022-08-14T20:33:07.457Z,11.30
2022-08-14T20:35:51.780Z,9.90
2022-08-14T20:38:32.613Z,9.43
2022-08-14T20:41:05.619Z,10.27
2022-08-14T20:43:55.040Z,15.55
2022-08-14T20:46:38.357Z,13.48
2022-08-14T20:49:11.921Z,17.25
2022-08-14T20:51:54.781Z,14.80
2022-08-14T20:54:34.605Z,14.65
2022-08-14T20:57:21.804Z,16.63
2022-08-14T20:59:56.680Z,16.80
2022-08-14T21:02:49.762Z,14.07
2022-08-14T21:05:33.579Z,16.67
2022-08-14T21:08:08.091Z,10.82
2022-08-14T21:10:43.803Z,12.32
2022-08-14T21:14:08.851Z,11.23
2022-08-14T21:16:33.088Z,9.50
2022-08-14T21:18:58.868Z,8.10
2022-08-14T21:21:41.272Z,8.57
2022-08-14T21:24:38.670Z,10.77
2022-08-14T21:27:12.806Z,9.98
2022-08-14T21:29:53.665Z,8.20
2022-08-14T21:32:33.808Z,7.97
2022-08-14T21:35:08.099Z,9.43
2022-08-14T21:37:47.506Z,8.25
2022-08-14T21:40:42.264Z,8.85
2022-08-14T21:43:18.474Z,6.93
2022-08-14T21:45:58.856Z,9.35
2022-08-14T21:48:32.569Z,8.45
2022-08-14T21:51:54.640Z,8.88
2022-08-14T21:54:00.024Z,10.00
2022-08-14T21:56:38.287Z,12.10
2022-08-14T21:59:29.307Z,8.32
2022-08-14T22:02:01.082Z,10.05
2022-08-14T22:04:40.496Z,8.75
2022-08-14T22:07:16.710Z,10.35
2022-08-14T22:09:55.161Z,7.70
2022-08-14T22:12:57.785Z,11.43
2022-08-14T22:15:16.141Z,8.77
2022-08-14T22:17:44.614Z,8.57
2022-08-14T22:20:19.992Z,9.27
2022-08-14T22:22:48.620Z,8.60
2022-08-14T22:25:33.522Z,8.48
2022-08-14T22:28:05.993Z,8.95
2022-08-14T22:30:34.360Z,9.20
2022-08-14T22:33:02.706Z,7.55
2022-08-14T22:35:30.400Z,7.82
2022-08-14T22:38:36.417Z,7.88
2022-08-14T22:41:05.656Z,8.52
2022-08-14T22:43:37.136Z,6.80
2022-08-14T22:46:14.761Z,8.95
2022-08-14T22:48:45.524Z,8.70
2022-08-14T22:51:17.726Z,8.50
2022-08-14T22:53:48.394Z,13.02
2022-08-14T22:56:20.473Z,10.10
2022-08-14T22:58:54.079Z,9.98
2022-08-14T23:01:55.763Z,9.27
2022-08-14T23:04:35.546Z,10.52
2022-08-14T23:07:14.396Z,10.35
2022-08-14T23:10:33.306Z,8.73
2022-08-14T23:12:54.437Z,10.00
2022-08-14T23:15:28.963Z,11.20
2022-08-14T23:17:58.872Z,8.63
2022-08-14T23:20:29.536Z,10.13
2022-08-14T23:22:57.862Z,8.20
2022-08-14T23:25:57.014Z,9.55
2022-08-14T23:28:34.010Z,10.25
2022-08-14T23:31:14.072Z,7.90
2022-08-14T23:33:51.939Z,8.60
2022-08-14T23:36:53.015Z,7.63
2022-08-14T23:39:32.915Z,7.85
2022-08-14T23:42:04.680Z,6.93
2022-08-14T23:44:35.587Z,7.15
2022-08-14T23:47:11.843Z,8.35
2022-08-14T23:50:01.375Z,6.80
2022-08-14T23:53:06.218Z,9.18
2022-08-14T23:55:29.392Z,7.43
2022-08-14T23:57:58.932Z,7.82
